Atoka, New Mexico
Current Conditions -  °F | °C
As of 6:53 PM on Saturday 22 Nov 2014 (Local Time) from KCNM Reporting Station
Clear Clear  
Wind Chill: 59°   Ceiling: Unl
Heat Index: 59°   Visibility: 10mi
Dew Point: 27°   Wind: 13mph
Humidity: 29%   Direction: 250°WSW
Pressure: 29.8"   Gusts: NA
Location:  32.7449°N, 104.256°W
Report Text: KCNM 230153Z AUTO 25011KT 10SM CLR 15/M03 A2980 RMK AO2 SLP063 T01501028
Loading
Personal Weather Stations






























Interactive Weather Map New forecast layout! Learn more

10-Day Weather Forecast

Advertisements
Track Severe Weather on mobile